Bulk Poland — 9V2143 — position and weather

sailwx.info

Track history (hours):
 
Tides and Currents Weather Stations Pressure Air Temp Water Temp Dewpoint Dewpoint Depression Visibility Wind Speed Wind Dir Waves Ship Positions

Bulk Poland

Last reported at 2018-Jul-11 06:06 UTC. Time now 2018-Aug-16 07:59 UTC.
Position N 34°30' W 024°04'.
Warning: this ship's position is 36 days out of date.

Length 227 m; draft 7 m.

Type: Cargo ship. MMSI: 564204000.

Date/timePositionNaut miles runAvg speedWind from/ knotsBaromVisibWave heightAir tempDewpointWater temp
2018-Jul-11 06:06N 34°30' W 024°04'114.3
2018-Jul-11 06:00N 34°30' W 024°02'43114.3
2018-Jul-09 23:52N 35°31' W 015°21'10914.1
2018-Jul-09 16:11N 35°42' W 013°08'514.2
2018-Jul-09 15:48N 35°43' W 013°01'10013.9
2018-Jul-09 08:38N 35°51' W 010°59'1013.9
2018-Jul-09 07:55N 35°52' W 010°47'1013.9
2018-Jul-09 07:13N 35°52' W 010°35'613.6
2018-Jul-09 06:48N 35°53' W 010°28'1913.9
2018-Jul-09 05:24N 35°55' W 010°04'613.8
2018-Jul-09 05:00N 35°55' W 009°57'2413.8
2018-Jul-09 03:14N 35°55' W 009°27'714.0
2018-Jul-09 02:46N 35°56' W 009°19'713.9
2018-Jul-09 02:17N 35°56' W 009°11'513.8
2018-Jul-09 01:56N 35°56' W 009°05'1313.9
2018-Jul-09 00:59N 35°56' W 008°48'713.9
2018-Jul-09 00:30N 35°56' W 008°40'813.9
2018-Jul-08 23:57N 35°56' W 008°31'614.1
2018-Jul-08 23:30N 35°56' W 008°23'713.9
2018-Jul-08 23:00N 35°56' W 008°14'1613.9
2018-Jul-08 21:52N 35°57' W 007°55'513.8
2018-Jul-08 21:29N 35°57' W 007°48'713.8
2018-Jul-08 21:00N 35°57' W 007°40'713.7
2018-Jul-08 20:30N 35°57' W 007°32'813.9
2018-Jul-08 19:56N 35°57' W 007°22'8513.6
2018-Jul-08 13:40N 35°58' W 005°37'211.8
2018-Jul-08 13:30N 35°58' W 005°34'611.7
2018-Jul-08 13:00N 36°00' W 005°28'510.5
2018-Jul-08 12:30N 36°04' W 005°24'4 6.9
2018-Jul-08 12:00N 36°07' W 005°22'0 0.1
2018-Jul-08 11:30N 36°07' W 005°22'0 0.1
2018-Jul-08 11:00N 36°07' W 005°22'0 0.0
2018-Jul-08 10:18N 36°07' W 005°22'0 0.1
2018-Jul-08 10:00N 36°08' W 005°22'0 0.1
2018-Jul-08 09:27N 36°07' W 005°22'0 0.1
2018-Jul-08 09:00N 36°07' W 005°22'0 0.1
2018-Jul-08 08:30N 36°08' W 005°22'0 0.3
2018-Jul-08 08:00N 36°08' W 005°23'0 0.3
2018-Jul-08 07:30N 36°07' W 005°23'0 0.2
2018-Jul-08 07:00N 36°07' W 005°23'0 0.1
2018-Jul-08 06:30N 36°07' W 005°22'0 0.1
2018-Jul-08 06:00N 36°07' W 005°22'0 0.2
2018-Jul-08 05:30N 36°07' W 005°23'0 0.2
2018-Jul-08 05:00N 36°07' W 005°22'0 0.1
2018-Jul-08 04:18N 36°07' W 005°22'0 0.0
2018-Jul-08 03:48N 36°07' W 005°22'0 0.0
2018-Jul-08 03:30N 36°07' W 005°22'0 0.0
2018-Jul-08 03:00N 36°07' W 005°22'0 0.0
2018-Jul-08 02:30N 36°07' W 005°22'0 0.0
2018-Jul-08 02:00N 36°07' W 005°22'0 0.0
2018-Jul-08 01:30N 36°07' W 005°22'0 0.0
2018-Jul-08 01:00N 36°07' W 005°22'0 0.0
2018-Jul-08 00:30N 36°07' W 005°22'0 0.0
2018-Jul-08 00:00N 36°07' W 005°22'0 0.0
2018-Jul-07 23:30N 36°07' W 005°22'0 0.1
2018-Jul-07 23:00N 36°07' W 005°22'0 0.2
2018-Jul-07 22:30N 36°07' W 005°22'3 5.0
2018-Jul-07 21:58N 36°05' W 005°20'2 3.9
2018-Jul-07 21:30N 36°04' W 005°18'0 0.6
2018-Jul-07 21:00N 36°05' W 005°18'3 6.2
2018-Jul-07 20:30N 36°07' W 005°15'4 7.1
2018-Jul-07 20:00N 36°09' W 005°12'1 1.8
2018-Jul-07 19:30N 36°09' W 005°11'19813.4
2018-Jul-07 04:41N 37°06' W 001°14'514.5
2018-Jul-07 04:21N 37°09' W 001°09'514.4
2018-Jul-07 04:00N 37°13' W 001°05'714.6
2018-Jul-07 03:31N 37°17' W 000°58'714.7
2018-Jul-07 03:00N 37°22' W 000°51'814.6
2018-Jul-07 02:30N 37°27' W 000°44'714.5
2018-Jul-07 02:01N 37°32' W 000°37'714.4
2018-Jul-07 01:31N 37°37' W 000°31'714.5
2018-Jul-07 01:00N 37°43' W 000°26'714.3
2018-Jul-07 00:31N 37°49' W 000°21'714.2
2018-Jul-07 00:00N 37°55' W 000°16'814.2
2018-Jul-06 23:27N 38°02' W 000°11'614.5
2018-Jul-06 23:01N 38°07' W 000°06'714.5
2018-Jul-06 22:30N 38°13' W 000°01'1414.8
2018-Jul-06 21:35N 38°25' E 000°08'214.9
2018-Jul-06 21:28N 38°26' E 000°09'1214.7
2018-Jul-06 20:40N 38°36' E 000°17'314.7
2018-Jul-06 20:29N 38°39' E 000°19'714.4
2018-Jul-06 20:00N 38°44' E 000°24'1014.2
2018-Jul-06 19:17N 38°53' E 000°32'614.4
2018-Jul-06 18:54N 38°57' E 000°36'614.4
2018-Jul-06 18:30N 39°01' E 000°41'1214.4
2018-Jul-06 17:41N 39°11' E 000°49'29514.7
2018-Jul-05 21:41N 43°02' E 004°52'315.0
2018-Jul-05 21:30N 43°04' E 004°54'714.6
2018-Jul-05 21:00N 43°10' E 004°60'714.1
2018-Jul-05 20:30N 43°17' E 004°59'511.0
2018-Jul-05 20:00N 43°23' E 004°58'4 8.1
2018-Jul-05 19:28N 43°25' E 004°52'0 0.0
2018-Jul-05 18:55N 43°25' E 004°52'0 0.0
2018-Jul-05 18:28N 43°25' E 004°52'0 0.0
2018-Jul-05 17:58N 43°25' E 004°52'0 0.0
2018-Jul-05 17:28N 43°25' E 004°52'0 0.0
2018-Jul-05 16:58N 43°25' E 004°52'0 0.0
2018-Jul-05 16:28N 43°25' E 004°52'0 0.0
2018-Jul-05 15:58N 43°25' E 004°52'0 0.0
2018-Jul-05 15:28N 43°25' E 004°52'0 0.0
2018-Jul-05 14:58N 43°25' E 004°52'0 0.0
2018-Jul-05 13:58N 43°25' E 004°52'0 0.0
2018-Jul-05 13:28N 43°25' E 004°52'0 0.0
2018-Jul-05 12:58N 43°25' E 004°52'0 0.0
2018-Jul-05 12:28N 43°25' E 004°52'0 0.0
2018-Jul-05 11:58N 43°25' E 004°52'0 0.0
2018-Jul-05 11:28N 43°25' E 004°52'0 0.0
2018-Jul-05 10:58N 43°25' E 004°52'0 0.0
2018-Jul-05 10:28N 43°25' E 004°52'0 0.0
2018-Jul-05 09:58N 43°25' E 004°52'0 0.0
2018-Jul-05 09:28N 43°25' E 004°52'0 0.0
2018-Jul-05 08:58N 43°25' E 004°52'0 0.0
2018-Jul-05 08:28N 43°25' E 004°52'0 0.0
2018-Jul-05 07:58N 43°25' E 004°52'0 0.0
2018-Jul-05 07:28N 43°25' E 004°52'0 0.0
2018-Jul-05 06:58N 43°25' E 004°52'0 0.0
2018-Jul-05 06:28N 43°25' E 004°52'0 0.0
2018-Jul-05 05:58N 43°25' E 004°52'0 0.0
2018-Jul-05 05:28N 43°25' E 004°52'0 0.0
2018-Jul-05 04:58N 43°25' E 004°52'0 0.0
2018-Jul-05 04:28N 43°25' E 004°52'0 0.0
2018-Jul-05 03:58N 43°25' E 004°52'0 0.0
2018-Jul-05 03:28N 43°25' E 004°52'0 0.0
2018-Jul-05 02:58N 43°25' E 004°52'0 0.0
2018-Jul-05 02:28N 43°25' E 004°52'0 0.0
2018-Jul-05 01:58N 43°25' E 004°52'0 0.0
2018-Jul-05 01:28N 43°25' E 004°52'0 0.0
2018-Jul-05 00:58N 43°25' E 004°52'0 0.0
2018-Jul-05 00:28N 43°25' E 004°52'0 0.0
2018-Jul-04 23:58N 43°25' E 004°52'0 0.0
2018-Jul-04 23:28N 43°25' E 004°52'0 0.0
2018-Jul-04 22:58N 43°25' E 004°52'0 0.0
2018-Jul-04 22:28N 43°25' E 004°52'0 0.0
2018-Jul-04 21:58N 43°25' E 004°52'0 0.0
2018-Jul-04 21:28N 43°25' E 004°52'0 0.0
2018-Jul-04 20:58N 43°25' E 004°52'0 0.0
2018-Jul-04 20:28N 43°25' E 004°52'0 0.0
2018-Jul-04 19:58N 43°25' E 004°52'0 0.0
2018-Jul-04 19:28N 43°25' E 004°52'0 0.0
2018-Jul-04 18:58N 43°25' E 004°52'0 0.0
2018-Jul-04 18:28N 43°25' E 004°52'0 0.0
2018-Jul-04 17:58N 43°25' E 004°52'0 0.0
2018-Jul-04 17:28N 43°25' E 004°52'0 0.0
2018-Jul-04 16:58N 43°25' E 004°52'0 0.0
2018-Jul-04 16:28N 43°25' E 004°52'0 0.0
2018-Jul-04 15:58N 43°25' E 004°52'0 0.0
2018-Jul-04 15:28N 43°25' E 004°52'0 0.0
2018-Jul-04 14:58N 43°25' E 004°52'0 0.0
2018-Jul-04 14:28N 43°25' E 004°52'0 0.0
2018-Jul-04 13:58N 43°25' E 004°52'0 0.0
2018-Jul-04 13:28N 43°25' E 004°52'0 0.0
2018-Jul-04 12:58N 43°25' E 004°52'0 0.0
2018-Jul-04 12:28N 43°25' E 004°52'0 0.0
2018-Jul-04 11:58N 43°25' E 004°52'0 0.0
2018-Jul-04 11:28N 43°25' E 004°52'0 0.0
2018-Jul-04 10:58N 43°25' E 004°52'0 0.0
2018-Jul-04 10:28N 43°25' E 004°52'0 0.0
2018-Jul-04 09:58N 43°25' E 004°52'0 0.0
2018-Jul-04 09:28N 43°25' E 004°52'0 0.0
2018-Jul-04 08:58N 43°25' E 004°52'0 0.0
2018-Jul-04 08:28N 43°25' E 004°52'0 0.0
2018-Jul-04 07:58N 43°25' E 004°52'0 0.0
2018-Jul-04 07:28N 43°25' E 004°52'0 0.0
2018-Jul-04 06:58N 43°25' E 004°52'0 0.0
2018-Jul-04 06:28N 43°25' E 004°52'0 0.0
2018-Jul-04 05:58N 43°25' E 004°52'0 0.0
2018-Jul-04 05:28N 43°25' E 004°52'0 0.0
2018-Jul-04 04:58N 43°25' E 004°52'0 0.0
2018-Jul-04 04:28N 43°25' E 004°52'0 0.0
2018-Jul-04 03:58N 43°25' E 004°52'0 0.0
2018-Jul-04 03:28N 43°25' E 004°52'0 0.0
2018-Jul-04 02:58N 43°25' E 004°52'0 0.0
2018-Jul-04 02:28N 43°25' E 004°52'0 0.0
2018-Jul-04 01:58N 43°25' E 004°52'0 0.0
2018-Jul-04 01:28N 43°25' E 004°52'0 0.0
2018-Jul-04 00:58N 43°25' E 004°52'0 0.0
2018-Jul-04 00:28N 43°25' E 004°52'0 0.0
2018-Jul-03 23:58N 43°25' E 004°52'0 0.0
2018-Jul-03 23:28N 43°25' E 004°52'0 0.0
2018-Jul-03 22:58N 43°25' E 004°52'0 0.0
2018-Jul-03 22:28N 43°25' E 004°52'0 0.0
2018-Jul-03 21:58N 43°25' E 004°52'0 0.0
2018-Jul-03 21:28N 43°25' E 004°52'0 0.0
2018-Jul-03 20:58N 43°25' E 004°52'0 0.0
2018-Jul-03 20:28N 43°25' E 004°52'0 0.0
2018-Jul-03 19:58N 43°25' E 004°52'0 0.0
2018-Jul-03 19:28N 43°25' E 004°52'0 0.0
2018-Jul-03 18:58N 43°25' E 004°52'0 0.0
2018-Jul-03 18:28N 43°25' E 004°52'0 0.0
2018-Jul-03 17:55N 43°25' E 004°52'0 0.0
2018-Jul-03 17:28N 43°25' E 004°52'0 0.0
2018-Jul-03 16:58N 43°25' E 004°52'0 0.0
2018-Jul-03 16:28N 43°25' E 004°52'0 0.0
2018-Jul-03 15:58N 43°25' E 004°52'0 0.0
2018-Jul-03 15:28N 43°25' E 004°52'0 0.0
2018-Jul-03 14:58N 43°25' E 004°52'0 0.0
2018-Jul-03 14:28N 43°25' E 004°52'0 0.0
2018-Jul-03 13:58N 43°25' E 004°52'0 0.0
2018-Jul-03 13:28N 43°25' E 004°52'0 0.0
2018-Jul-03 12:58N 43°25' E 004°52'0 0.0
2018-Jul-03 12:25N 43°25' E 004°52'0 0.0
2018-Jul-03 11:58N 43°25' E 004°52'0 0.0
2018-Jul-03 11:28N 43°25' E 004°52'0 0.0
2018-Jul-03 10:55N 43°25' E 004°52'0 0.0
2018-Jul-03 10:28N 43°25' E 004°52'0 0.0
2018-Jul-03 09:58N 43°25' E 004°52'0 0.0
2018-Jul-03 09:28N 43°25' E 004°52'0 0.0
2018-Jul-03 08:58N 43°25' E 004°52'0 0.0
2018-Jul-03 08:28N 43°25' E 004°52'0 0.0
2018-Jul-03 07:58N 43°25' E 004°52'0 0.0
2018-Jul-03 07:28N 43°25' E 004°52'0 0.0
2018-Jul-03 06:58N 43°25' E 004°52'0 0.0
2018-Jul-03 06:28N 43°25' E 004°52'0 0.0
2018-Jul-03 05:58N 43°25' E 004°52'0 0.0
2018-Jul-03 05:28N 43°25' E 004°52'0 0.0
2018-Jul-03 04:58N 43°25' E 004°52'0 0.0
2018-Jul-03 04:28N 43°25' E 004°52'0 0.0
2018-Jul-03 03:58N 43°25' E 004°52'0 0.0
2018-Jul-03 03:28N 43°25' E 004°52'0 0.0
2018-Jul-03 02:58N 43°25' E 004°52'0 0.0
2018-Jul-03 02:28N 43°25' E 004°52'0 0.0
2018-Jul-03 01:58N 43°25' E 004°52'0 0.0
2018-Jul-03 01:28N 43°25' E 004°52'0 0.0
2018-Jul-03 00:58N 43°25' E 004°52'0 0.0
2018-Jul-03 00:28N 43°25' E 004°52'0 0.0
2018-Jul-02 23:58N 43°25' E 004°52'0 0.0
2018-Jul-02 23:28N 43°25' E 004°52'0 0.0
2018-Jul-02 22:58N 43°25' E 004°52'0 0.0
2018-Jul-02 22:28N 43°25' E 004°52'0 0.0
2018-Jul-02 21:58N 43°25' E 004°52'0 0.0
2018-Jul-02 21:28N 43°25' E 004°52'0 0.0
2018-Jul-02 20:58N 43°25' E 004°52'0 0.0
2018-Jul-02 20:28N 43°25' E 004°52'0 0.0
2018-Jul-02 19:58N 43°25' E 004°52'0 0.0
2018-Jul-02 19:28N 43°25' E 004°52'0 0.0
2018-Jul-02 18:58N 43°25' E 004°52'0 0.0
2018-Jul-02 18:28N 43°25' E 004°52'0 0.0
2018-Jul-02 17:52N 43°25' E 004°52'0 0.0
2018-Jul-02 17:28N 43°25' E 004°52'0 0.0
2018-Jul-02 16:58N 43°25' E 004°52'0 0.0
2018-Jul-02 16:28N 43°25' E 004°52'0 0.0
2018-Jul-02 15:58N 43°25' E 004°52'0 0.0
2018-Jul-02 15:28N 43°25' E 004°52'0 0.0
2018-Jul-02 14:55N 43°25' E 004°52'0 0.0
2018-Jul-02 14:28N 43°25' E 004°52'0 0.0
2018-Jul-02 13:58N 43°25' E 004°52'0 0.0
2018-Jul-02 13:28N 43°25' E 004°52'0 0.0
2018-Jul-02 12:58N 43°25' E 004°52'0 0.0
2018-Jul-02 12:28N 43°25' E 004°52'0 0.0
2018-Jul-02 11:55N 43°25' E 004°52'0 0.0
2018-Jul-02 11:28N 43°25' E 004°52'0 0.0
2018-Jul-02 10:58N 43°25' E 004°52'0 0.0
2018-Jul-02 10:22N 43°25' E 004°52'0 0.0
2018-Jul-02 09:58N 43°25' E 004°52'0 0.0
2018-Jul-02 09:28N 43°25' E 004°52'0 0.0
2018-Jul-02 08:58N 43°25' E 004°52'0 0.0
2018-Jul-02 08:25N 43°25' E 004°52'0 0.0
2018-Jul-02 07:58N 43°25' E 004°52'0 0.0
2018-Jul-02 07:28N 43°25' E 004°52'0 0.0
2018-Jul-02 06:58N 43°25' E 004°52'0 0.0
2018-Jul-02 06:28N 43°25' E 004°52'0 0.0
2018-Jul-02 05:58N 43°25' E 004°52'0 0.0
2018-Jul-02 05:28N 43°25' E 004°52'0 0.0
2018-Jul-02 04:58N 43°25' E 004°52'0 0.0
2018-Jul-02 04:31N 43°25' E 004°52'0 0.0
2018-Jul-02 03:58N 43°25' E 004°52'0 0.0
2018-Jul-02 03:28N 43°25' E 004°52'0 0.0
2018-Jul-02 02:58N 43°25' E 004°52'0 0.0
2018-Jul-02 02:28N 43°25' E 004°52'0 0.0
2018-Jul-02 01:58N 43°25' E 004°52'0 0.0
2018-Jul-02 01:31N 43°25' E 004°52'0 0.0
2018-Jul-02 00:58N 43°25' E 004°52'0 0.0
2018-Jul-02 00:31N 43°25' E 004°52'0 0.0
2018-Jul-01 23:58N 43°25' E 004°52'0 0.0
2018-Jul-01 23:28N 43°25' E 004°52'0 0.0
2018-Jul-01 22:58N 43°25' E 004°52'0 0.0
2018-Jul-01 22:28N 43°25' E 004°52'0 0.0
2018-Jul-01 21:58N 43°25' E 004°52'0 0.0
2018-Jul-01 21:28N 43°25' E 004°52'0 0.0
2018-Jul-01 20:58N 43°25' E 004°52'0 0.0
2018-Jul-01 20:28N 43°25' E 004°52'0 0.0
2018-Jul-01 20:00N 43°25' E 004°52'0 0.0
2018-Jul-01 19:28N 43°25' E 004°52'0 0.0
2018-Jul-01 18:58N 43°25' E 004°52'0 0.0
2018-Jul-01 18:31N 43°25' E 004°52'0 0.0
2018-Jul-01 17:58N 43°25' E 004°52'0 0.0
2018-Jul-01 17:28N 43°25' E 004°52'0 0.0
2018-Jul-01 16:57N 43°25' E 004°52'0 0.0
2018-Jul-01 16:25N 43°25' E 004°52'0 0.0
2018-Jul-01 15:58N 43°25' E 004°52'0 0.0
2018-Jul-01 15:28N 43°25' E 004°52'0 0.0
2018-Jul-01 14:58N 43°25' E 004°52'0 0.0
2018-Jul-01 14:28N 43°25' E 004°52'0 0.0
2018-Jul-01 14:01N 43°25' E 004°52'0 0.0
2018-Jul-01 13:28N 43°25' E 004°52'0 0.0
2018-Jul-01 12:58N 43°25' E 004°52'0 0.0
2018-Jul-01 12:27N 43°25' E 004°52'0 0.0
2018-Jul-01 11:58N 43°25' E 004°52'0 0.0
2018-Jul-01 11:28N 43°25' E 004°52'0 0.0
2018-Jul-01 11:00N 43°25' E 004°52'0 0.0
2018-Jul-01 10:30N 43°25' E 004°52'0 0.0
2018-Jul-01 10:01N 43°25' E 004°52'0 0.0
2018-Jul-01 09:31N 43°25' E 004°52'0 0.0
2018-Jul-01 09:01N 43°25' E 004°52'0 0.0
2018-Jul-01 08:30N 43°25' E 004°52'0 0.0
2018-Jul-01 08:00N 43°25' E 004°52'0 0.0
2018-Jul-01 07:31N 43°25' E 004°52'0 0.0
2018-Jul-01 06:58N 43°25' E 004°52'0 0.0
2018-Jul-01 06:30N 43°25' E 004°52'  
Track history (hours):
 
Tides and Currents Weather Stations Pressure Air Temp Water Temp Dewpoint Dewpoint Depression Visibility Wind Speed Wind Dir Waves Ship Positions

Bulk Poland

Last reported at 2018-Jul-11 06:06 UTC. Time now 2018-Aug-16 07:59 UTC.
Position N 34°30' W 024°04'.
Warning: this ship's position is 36 days out of date.

Length 227 m; draft 7 m.

Type: Cargo ship. MMSI: 564204000.

Date/timePositionNaut miles runAvg speedWind from/ knotsBaromVisibWave heightAir tempDewpointWater temp
2018-Jul-11 06:06N 34°30' W 024°04'114.3
2018-Jul-11 06:00N 34°30' W 024°02'43114.3
2018-Jul-09 23:52N 35°31' W 015°21'10914.1
2018-Jul-09 16:11N 35°42' W 013°08'514.2
2018-Jul-09 15:48N 35°43' W 013°01'10013.9
2018-Jul-09 08:38N 35°51' W 010°59'1013.9
2018-Jul-09 07:55N 35°52' W 010°47'1013.9
2018-Jul-09 07:13N 35°52' W 010°35'613.6
2018-Jul-09 06:48N 35°53' W 010°28'1913.9
2018-Jul-09 05:24N 35°55' W 010°04'613.8
2018-Jul-09 05:00N 35°55' W 009°57'2413.8
2018-Jul-09 03:14N 35°55' W 009°27'714.0
2018-Jul-09 02:46N 35°56' W 009°19'713.9
2018-Jul-09 02:17N 35°56' W 009°11'513.8
2018-Jul-09 01:56N 35°56' W 009°05'1313.9
2018-Jul-09 00:59N 35°56' W 008°48'713.9
2018-Jul-09 00:30N 35°56' W 008°40'813.9
2018-Jul-08 23:57N 35°56' W 008°31'614.1
2018-Jul-08 23:30N 35°56' W 008°23'713.9
2018-Jul-08 23:00N 35°56' W 008°14'1613.9
2018-Jul-08 21:52N 35°57' W 007°55'513.8
2018-Jul-08 21:29N 35°57' W 007°48'713.8
2018-Jul-08 21:00N 35°57' W 007°40'713.7
2018-Jul-08 20:30N 35°57' W 007°32'813.9
2018-Jul-08 19:56N 35°57' W 007°22'8513.6
2018-Jul-08 13:40N 35°58' W 005°37'211.8
2018-Jul-08 13:30N 35°58' W 005°34'611.7
2018-Jul-08 13:00N 36°00' W 005°28'510.5
2018-Jul-08 12:30N 36°04' W 005°24'4 6.9
2018-Jul-08 12:00N 36°07' W 005°22'0 0.1
2018-Jul-08 11:30N 36°07' W 005°22'0 0.1
2018-Jul-08 11:00N 36°07' W 005°22'0 0.0
2018-Jul-08 10:18N 36°07' W 005°22'0 0.1
2018-Jul-08 10:00N 36°08' W 005°22'0 0.1
2018-Jul-08 09:27N 36°07' W 005°22'0 0.1
2018-Jul-08 09:00N 36°07' W 005°22'0 0.1
2018-Jul-08 08:30N 36°08' W 005°22'0 0.3
2018-Jul-08 08:00N 36°08' W 005°23'0 0.3
2018-Jul-08 07:30N 36°07' W 005°23'0 0.2
2018-Jul-08 07:00N 36°07' W 005°23'0 0.1
2018-Jul-08 06:30N 36°07' W 005°22'0 0.1
2018-Jul-08 06:00N 36°07' W 005°22'0 0.2
2018-Jul-08 05:30N 36°07' W 005°23'0 0.2
2018-Jul-08 05:00N 36°07' W 005°22'0 0.1
2018-Jul-08 04:18N 36°07' W 005°22'0 0.0
2018-Jul-08 03:48N 36°07' W 005°22'0 0.0
2018-Jul-08 03:30N 36°07' W 005°22'0 0.0
2018-Jul-08 03:00N 36°07' W 005°22'0 0.0
2018-Jul-08 02:30N 36°07' W 005°22'0 0.0
2018-Jul-08 02:00N 36°07' W 005°22'0 0.0
2018-Jul-08 01:30N 36°07' W 005°22'0 0.0
2018-Jul-08 01:00N 36°07' W 005°22'0 0.0
2018-Jul-08 00:30N 36°07' W 005°22'0 0.0
2018-Jul-08 00:00N 36°07' W 005°22'0 0.0
2018-Jul-07 23:30N 36°07' W 005°22'0 0.1
2018-Jul-07 23:00N 36°07' W 005°22'0 0.2
2018-Jul-07 22:30N 36°07' W 005°22'3 5.0
2018-Jul-07 21:58N 36°05' W 005°20'2 3.9
2018-Jul-07 21:30N 36°04' W 005°18'0 0.6
2018-Jul-07 21:00N 36°05' W 005°18'3 6.2
2018-Jul-07 20:30N 36°07' W 005°15'4 7.1
2018-Jul-07 20:00N 36°09' W 005°12'1 1.8
2018-Jul-07 19:30N 36°09' W 005°11'19813.4
2018-Jul-07 04:41N 37°06' W 001°14'514.5
2018-Jul-07 04:21N 37°09' W 001°09'514.4
2018-Jul-07 04:00N 37°13' W 001°05'714.6
2018-Jul-07 03:31N 37°17' W 000°58'714.7
2018-Jul-07 03:00N 37°22' W 000°51'814.6
2018-Jul-07 02:30N 37°27' W 000°44'714.5
2018-Jul-07 02:01N 37°32' W 000°37'714.4
2018-Jul-07 01:31N 37°37' W 000°31'714.5
2018-Jul-07 01:00N 37°43' W 000°26'714.3
2018-Jul-07 00:31N 37°49' W 000°21'714.2
2018-Jul-07 00:00N 37°55' W 000°16'814.2
2018-Jul-06 23:27N 38°02' W 000°11'614.5
2018-Jul-06 23:01N 38°07' W 000°06'714.5
2018-Jul-06 22:30N 38°13' W 000°01'1414.8
2018-Jul-06 21:35N 38°25' E 000°08'214.9
2018-Jul-06 21:28N 38°26' E 000°09'1214.7
2018-Jul-06 20:40N 38°36' E 000°17'314.7
2018-Jul-06 20:29N 38°39' E 000°19'714.4
2018-Jul-06 20:00N 38°44' E 000°24'1014.2
2018-Jul-06 19:17N 38°53' E 000°32'614.4
2018-Jul-06 18:54N 38°57' E 000°36'614.4
2018-Jul-06 18:30N 39°01' E 000°41'1214.4
2018-Jul-06 17:41N 39°11' E 000°49'29514.7
2018-Jul-05 21:41N 43°02' E 004°52'315.0
2018-Jul-05 21:30N 43°04' E 004°54'714.6
2018-Jul-05 21:00N 43°10' E 004°60'714.1
2018-Jul-05 20:30N 43°17' E 004°59'511.0
2018-Jul-05 20:00N 43°23' E 004°58'4 8.1
2018-Jul-05 19:28N 43°25' E 004°52'0 0.0
2018-Jul-05 18:55N 43°25' E 004°52'0 0.0
2018-Jul-05 18:28N 43°25' E 004°52'0 0.0
2018-Jul-05 17:58N 43°25' E 004°52'0 0.0
2018-Jul-05 17:28N 43°25' E 004°52'0 0.0
2018-Jul-05 16:58N 43°25' E 004°52'0 0.0
2018-Jul-05 16:28N 43°25' E 004°52'0 0.0
2018-Jul-05 15:58N 43°25' E 004°52'0 0.0
2018-Jul-05 15:28N 43°25' E 004°52'0 0.0
2018-Jul-05 14:58N 43°25' E 004°52'0 0.0
2018-Jul-05 13:58N 43°25' E 004°52'0 0.0
2018-Jul-05 13:28N 43°25' E 004°52'0 0.0
2018-Jul-05 12:58N 43°25' E 004°52'0 0.0
2018-Jul-05 12:28N 43°25' E 004°52'0 0.0
2018-Jul-05 11:58N 43°25' E 004°52'0 0.0
2018-Jul-05 11:28N 43°25' E 004°52'0 0.0
2018-Jul-05 10:58N 43°25' E 004°52'0 0.0
2018-Jul-05 10:28N 43°25' E 004°52'0 0.0
2018-Jul-05 09:58N 43°25' E 004°52'0 0.0
2018-Jul-05 09:28N 43°25' E 004°52'0 0.0
2018-Jul-05 08:58N 43°25' E 004°52'0 0.0
2018-Jul-05 08:28N 43°25' E 004°52'0 0.0
2018-Jul-05 07:58N 43°25' E 004°52'0 0.0
2018-Jul-05 07:28N 43°25' E 004°52'0 0.0
2018-Jul-05 06:58N 43°25' E 004°52'0 0.0
2018-Jul-05 06:28N 43°25' E 004°52'0 0.0
2018-Jul-05 05:58N 43°25' E 004°52'0 0.0
2018-Jul-05 05:28N 43°25' E 004°52'0 0.0
2018-Jul-05 04:58N 43°25' E 004°52'0 0.0
2018-Jul-05 04:28N 43°25' E 004°52'0 0.0
2018-Jul-05 03:58N 43°25' E 004°52'0 0.0
2018-Jul-05 03:28N 43°25' E 004°52'0 0.0
2018-Jul-05 02:58N 43°25' E 004°52'0 0.0
2018-Jul-05 02:28N 43°25' E 004°52'0 0.0
2018-Jul-05 01:58N 43°25' E 004°52'0 0.0
2018-Jul-05 01:28N 43°25' E 004°52'0 0.0
2018-Jul-05 00:58N 43°25' E 004°52'0 0.0
2018-Jul-05 00:28N 43°25' E 004°52'0 0.0
2018-Jul-04 23:58N 43°25' E 004°52'0 0.0
2018-Jul-04 23:28N 43°25' E 004°52'0 0.0
2018-Jul-04 22:58N 43°25' E 004°52'0 0.0
2018-Jul-04 22:28N 43°25' E 004°52'0 0.0
2018-Jul-04 21:58N 43°25' E 004°52'0 0.0
2018-Jul-04 21:28N 43°25' E 004°52'0 0.0
2018-Jul-04 20:58N 43°25' E 004°52'0 0.0
2018-Jul-04 20:28N 43°25' E 004°52'0 0.0
2018-Jul-04 19:58N 43°25' E 004°52'0 0.0
2018-Jul-04 19:28N 43°25' E 004°52'0 0.0
2018-Jul-04 18:58N 43°25' E 004°52'0 0.0
2018-Jul-04 18:28N 43°25' E 004°52'0 0.0
2018-Jul-04 17:58N 43°25' E 004°52'0 0.0
2018-Jul-04 17:28N 43°25' E 004°52'0 0.0
2018-Jul-04 16:58N 43°25' E 004°52'0 0.0
2018-Jul-04 16:28N 43°25' E 004°52'0 0.0
2018-Jul-04 15:58N 43°25' E 004°52'0 0.0
2018-Jul-04 15:28N 43°25' E 004°52'0 0.0
2018-Jul-04 14:58N 43°25' E 004°52'0 0.0
2018-Jul-04 14:28N 43°25' E 004°52'0 0.0
2018-Jul-04 13:58N 43°25' E 004°52'0 0.0
2018-Jul-04 13:28N 43°25' E 004°52'0 0.0
2018-Jul-04 12:58N 43°25' E 004°52'0 0.0
2018-Jul-04 12:28N 43°25' E 004°52'0 0.0
2018-Jul-04 11:58N 43°25' E 004°52'0 0.0
2018-Jul-04 11:28N 43°25' E 004°52'0 0.0
2018-Jul-04 10:58N 43°25' E 004°52'0 0.0
2018-Jul-04 10:28N 43°25' E 004°52'0 0.0
2018-Jul-04 09:58N 43°25' E 004°52'0 0.0
2018-Jul-04 09:28N 43°25' E 004°52'0 0.0
2018-Jul-04 08:58N 43°25' E 004°52'0 0.0
2018-Jul-04 08:28N 43°25' E 004°52'0 0.0
2018-Jul-04 07:58N 43°25' E 004°52'0 0.0
2018-Jul-04 07:28N 43°25' E 004°52'0 0.0
2018-Jul-04 06:58N 43°25' E 004°52'0 0.0
2018-Jul-04 06:28N 43°25' E 004°52'0 0.0
2018-Jul-04 05:58N 43°25' E 004°52'0 0.0
2018-Jul-04 05:28N 43°25' E 004°52'0 0.0
2018-Jul-04 04:58N 43°25' E 004°52'0 0.0
2018-Jul-04 04:28N 43°25' E 004°52'0 0.0
2018-Jul-04 03:58N 43°25' E 004°52'0 0.0
2018-Jul-04 03:28N 43°25' E 004°52'0 0.0
2018-Jul-04 02:58N 43°25' E 004°52'0 0.0
2018-Jul-04 02:28N 43°25' E 004°52'0 0.0
2018-Jul-04 01:58N 43°25' E 004°52'0 0.0
2018-Jul-04 01:28N 43°25' E 004°52'0 0.0
2018-Jul-04 00:58N 43°25' E 004°52'0 0.0
2018-Jul-04 00:28N 43°25' E 004°52'0 0.0
2018-Jul-03 23:58N 43°25' E 004°52'0 0.0
2018-Jul-03 23:28N 43°25' E 004°52'0 0.0
2018-Jul-03 22:58N 43°25' E 004°52'0 0.0
2018-Jul-03 22:28N 43°25' E 004°52'0 0.0
2018-Jul-03 21:58N 43°25' E 004°52'0 0.0
2018-Jul-03 21:28N 43°25' E 004°52'0 0.0
2018-Jul-03 20:58N 43°25' E 004°52'0 0.0
2018-Jul-03 20:28N 43°25' E 004°52'0 0.0
2018-Jul-03 19:58N 43°25' E 004°52'0 0.0
2018-Jul-03 19:28N 43°25' E 004°52'0 0.0
2018-Jul-03 18:58N 43°25' E 004°52'0 0.0
2018-Jul-03 18:28N 43°25' E 004°52'0 0.0
2018-Jul-03 17:55N 43°25' E 004°52'0 0.0
2018-Jul-03 17:28N 43°25' E 004°52'0 0.0
2018-Jul-03 16:58N 43°25' E 004°52'0 0.0
2018-Jul-03 16:28N 43°25' E 004°52'0 0.0
2018-Jul-03 15:58N 43°25' E 004°52'0 0.0
2018-Jul-03 15:28N 43°25' E 004°52'0 0.0
2018-Jul-03 14:58N 43°25' E 004°52'0 0.0
2018-Jul-03 14:28N 43°25' E 004°52'0 0.0
2018-Jul-03 13:58N 43°25' E 004°52'0 0.0
2018-Jul-03 13:28N 43°25' E 004°52'0 0.0
2018-Jul-03 12:58N 43°25' E 004°52'0 0.0
2018-Jul-03 12:25N 43°25' E 004°52'0 0.0
2018-Jul-03 11:58N 43°25' E 004°52'0 0.0
2018-Jul-03 11:28N 43°25' E 004°52'0 0.0
2018-Jul-03 10:55N 43°25' E 004°52'0 0.0
2018-Jul-03 10:28N 43°25' E 004°52'0 0.0
2018-Jul-03 09:58N 43°25' E 004°52'0 0.0
2018-Jul-03 09:28N 43°25' E 004°52'0 0.0
2018-Jul-03 08:58N 43°25' E 004°52'0 0.0
2018-Jul-03 08:28N 43°25' E 004°52'0 0.0
2018-Jul-03 07:58N 43°25' E 004°52'0 0.0
2018-Jul-03 07:28N 43°25' E 004°52'0 0.0
2018-Jul-03 06:58N 43°25' E 004°52'0 0.0
2018-Jul-03 06:28N 43°25' E 004°52'0 0.0
2018-Jul-03 05:58N 43°25' E 004°52'0 0.0
2018-Jul-03 05:28N 43°25' E 004°52'0 0.0
2018-Jul-03 04:58N 43°25' E 004°52'0 0.0
2018-Jul-03 04:28N 43°25' E 004°52'0 0.0
2018-Jul-03 03:58N 43°25' E 004°52'0 0.0
2018-Jul-03 03:28N 43°25' E 004°52'0 0.0
2018-Jul-03 02:58N 43°25' E 004°52'0 0.0
2018-Jul-03 02:28N 43°25' E 004°52'0 0.0
2018-Jul-03 01:58N 43°25' E 004°52'0 0.0
2018-Jul-03 01:28N 43°25' E 004°52'0 0.0
2018-Jul-03 00:58N 43°25' E 004°52'0 0.0
2018-Jul-03 00:28N 43°25' E 004°52'0 0.0
2018-Jul-02 23:58N 43°25' E 004°52'0 0.0
2018-Jul-02 23:28N 43°25' E 004°52'0 0.0
2018-Jul-02 22:58N 43°25' E 004°52'0 0.0
2018-Jul-02 22:28N 43°25' E 004°52'0 0.0
2018-Jul-02 21:58N 43°25' E 004°52'0 0.0
2018-Jul-02 21:28N 43°25' E 004°52'0 0.0
2018-Jul-02 20:58N 43°25' E 004°52'0 0.0
2018-Jul-02 20:28N 43°25' E 004°52'0 0.0
2018-Jul-02 19:58N 43°25' E 004°52'0 0.0
2018-Jul-02 19:28N 43°25' E 004°52'0 0.0
2018-Jul-02 18:58N 43°25' E 004°52'0 0.0
2018-Jul-02 18:28N 43°25' E 004°52'0 0.0
2018-Jul-02 17:52N 43°25' E 004°52'0 0.0
2018-Jul-02 17:28N 43°25' E 004°52'0 0.0
2018-Jul-02 16:58N 43°25' E 004°52'0 0.0
2018-Jul-02 16:28N 43°25' E 004°52'0 0.0
2018-Jul-02 15:58N 43°25' E 004°52'0 0.0
2018-Jul-02 15:28N 43°25' E 004°52'0 0.0
2018-Jul-02 14:55N 43°25' E 004°52'0 0.0
2018-Jul-02 14:28N 43°25' E 004°52'0 0.0
2018-Jul-02 13:58N 43°25' E 004°52'0 0.0
2018-Jul-02 13:28N 43°25' E 004°52'0 0.0
2018-Jul-02 12:58N 43°25' E 004°52'0 0.0
2018-Jul-02 12:28N 43°25' E 004°52'0 0.0
2018-Jul-02 11:55N 43°25' E 004°52'0 0.0
2018-Jul-02 11:28N 43°25' E 004°52'0 0.0
2018-Jul-02 10:58N 43°25' E 004°52'0 0.0
2018-Jul-02 10:22N 43°25' E 004°52'0 0.0
2018-Jul-02 09:58N 43°25' E 004°52'0 0.0
2018-Jul-02 09:28N 43°25' E 004°52'0 0.0
2018-Jul-02 08:58N 43°25' E 004°52'0 0.0
2018-Jul-02 08:25N 43°25' E 004°52'0 0.0
2018-Jul-02 07:58N 43°25' E 004°52'0 0.0
2018-Jul-02 07:28N 43°25' E 004°52'0 0.0
2018-Jul-02 06:58N 43°25' E 004°52'0 0.0
2018-Jul-02 06:28N 43°25' E 004°52'0 0.0
2018-Jul-02 05:58N 43°25' E 004°52'0 0.0
2018-Jul-02 05:28N 43°25' E 004°52'0 0.0
2018-Jul-02 04:58N 43°25' E 004°52'0 0.0
2018-Jul-02 04:31N 43°25' E 004°52'0 0.0
2018-Jul-02 03:58N 43°25' E 004°52'0 0.0
2018-Jul-02 03:28N 43°25' E 004°52'0 0.0
2018-Jul-02 02:58N 43°25' E 004°52'0 0.0
2018-Jul-02 02:28N 43°25' E 004°52'0 0.0
2018-Jul-02 01:58N 43°25' E 004°52'0 0.0
2018-Jul-02 01:31N 43°25' E 004°52'0 0.0
2018-Jul-02 00:58N 43°25' E 004°52'0 0.0
2018-Jul-02 00:31N 43°25' E 004°52'0 0.0
2018-Jul-01 23:58N 43°25' E 004°52'0 0.0
2018-Jul-01 23:28N 43°25' E 004°52'0 0.0
2018-Jul-01 22:58N 43°25' E 004°52'0 0.0
2018-Jul-01 22:28N 43°25' E 004°52'0 0.0
2018-Jul-01 21:58N 43°25' E 004°52'0 0.0
2018-Jul-01 21:28N 43°25' E 004°52'0 0.0
2018-Jul-01 20:58N 43°25' E 004°52'0 0.0
2018-Jul-01 20:28N 43°25' E 004°52'0 0.0
2018-Jul-01 20:00N 43°25' E 004°52'0 0.0
2018-Jul-01 19:28N 43°25' E 004°52'0 0.0
2018-Jul-01 18:58N 43°25' E 004°52'0 0.0
2018-Jul-01 18:31N 43°25' E 004°52'0 0.0
2018-Jul-01 17:58N 43°25' E 004°52'0 0.0
2018-Jul-01 17:28N 43°25' E 004°52'0 0.0
2018-Jul-01 16:57N 43°25' E 004°52'0 0.0
2018-Jul-01 16:25N 43°25' E 004°52'0 0.0
2018-Jul-01 15:58N 43°25' E 004°52'0 0.0
2018-Jul-01 15:28N 43°25' E 004°52'0 0.0
2018-Jul-01 14:58N 43°25' E 004°52'0 0.0
2018-Jul-01 14:28N 43°25' E 004°52'0 0.0
2018-Jul-01 14:01N 43°25' E 004°52'0 0.0
2018-Jul-01 13:28N 43°25' E 004°52'0 0.0
2018-Jul-01 12:58N 43°25' E 004°52'0 0.0
2018-Jul-01 12:27N 43°25' E 004°52'0 0.0
2018-Jul-01 11:58N 43°25' E 004°52'0 0.0
2018-Jul-01 11:28N 43°25' E 004°52'0 0.0
2018-Jul-01 11:00N 43°25' E 004°52'0 0.0
2018-Jul-01 10:30N 43°25' E 004°52'0 0.0
2018-Jul-01 10:01N 43°25' E 004°52'0 0.0
2018-Jul-01 09:31N 43°25' E 004°52'0 0.0
2018-Jul-01 09:01N 43°25' E 004°52'0 0.0
2018-Jul-01 08:30N 43°25' E 004°52'0 0.0
2018-Jul-01 08:00N 43°25' E 004°52'0 0.0
2018-Jul-01 07:31N 43°25' E 004°52'0 0.0
2018-Jul-01 06:58N 43°25' E 004°52'0 0.0
2018-Jul-01 06:30N 43°25' E 004°52'  

Dump ship's entire track history